Airfield :
LOGIN :

Register | Disclaimer

   EN    FR    IT 

 










Legend :    VFR   Marginal VFR   IFR   Intensive IFR   Very Intensive IFR
Visi :
Ceiling :
>= 8 km
>= 3000ft
5 to 8 km
1000 to 3000 ft
1500m to 5 km
500 to 1000 ft
800 to 1500m
200 to 500 ft
< 800m
< 200 ft
Symbols :   Thunderstorms  Fog  Heavy snow  Heavy precipitations  Wind > 20 kt
SIGMETs :     Misc.  Thunderstorms  Icing  Turbulence  Mountain Waves  Volcanic Ashes






- Airport Elevation : 172 ft
- IATA code : ODS


UKOO - Odesa

CURRENT METAR :
  • 310400Z 21003MPS CAVOK 13/10 Q1008 R34/290054 NOSIG

EXPIRED METARs :
  • 310330Z 20002MPS CAVOK 12/11 Q1008 R34/290054 NOSIG
  • 310300Z 22002MPS CAVOK 11/11 Q1008 R34/290054 NOSIG
  • 310230Z 21003MPS CAVOK 11/11 Q1008 R34/290054 NOSIG
  • 310200Z 20004MPS CAVOK 12/11 Q1008 R34/290054 NOSIG

TAF TAF UKOO
Valid from the 31 at 00:00 until the 01 at 00:00 UTC


302303Z 3100/3124 19005G11MPS 2100 BR SCT003 BKN007 SCT015CB
PROB40
TEMPO 3100/3105 0400 FG VV002
BECMG 3105/3106 22007G14MPS 6000 -SHRA
PROB40
TEMPO 3106/3116 VRB09G18MPS 1000 TSRAGR SQ BKN003 BKN013CB



MET'MAP, your aeronautical weather chart ! - Copyright ORBIFLY December 2007 - Disclaimer

ORBIFLY MET'MAP TEAM :

Programming & Development : Alexandra Zaïnal
Concept & original design : Baudouin d'Aumeries
Assistance for programming : Marc-Olivier Méhu
Technical & hardware support : Manuel Goepfert

Contact : metmap@orbifly.com




SOURCES & CREDITS :

   NOAA